createdAt,value
2018-07-11T00:00:30.008Z,16.83
2018-07-11T00:02:58.141Z,18.83
2018-07-11T00:05:26.177Z,16.63
2018-07-11T00:07:54.178Z,27.67
2018-07-11T00:10:22.184Z,19.87
2018-07-11T00:12:50.135Z,16.10
2018-07-11T00:15:18.074Z,17.33
2018-07-11T00:17:46.168Z,15.90
2018-07-11T00:20:14.074Z,16.33
2018-07-11T00:22:42.093Z,15.20
2018-07-11T00:25:10.136Z,18.60
2018-07-11T00:27:38.188Z,21.50
2018-07-11T00:30:06.150Z,19.97
2018-07-11T00:32:34.226Z,18.37
2018-07-11T00:35:02.293Z,20.40
2018-07-11T00:37:30.447Z,23.43
2018-07-11T00:39:58.416Z,18.23
2018-07-11T00:42:26.385Z,20.57
2018-07-11T00:44:54.669Z,19.13
2018-07-11T00:47:22.634Z,21.67
2018-07-11T00:49:50.604Z,19.60
2018-07-11T00:52:19.060Z,22.03
2018-07-11T00:54:47.169Z,21.53
2018-07-11T00:57:16.727Z,23.37
2018-07-11T00:59:44.748Z,20.90
2018-07-11T01:02:13.089Z,21.60
2018-07-11T01:04:41.144Z,25.20
2018-07-11T01:07:09.447Z,17.60
2018-07-11T01:09:49.159Z,18.67
2018-07-11T01:12:19.102Z,22.00
2018-07-11T01:14:47.681Z,23.63
2018-07-11T01:17:21.256Z,18.30
2018-07-11T01:19:49.439Z,20.20
2018-07-11T01:22:17.492Z,20.80
2018-07-11T01:24:45.696Z,23.87
2018-07-11T01:27:13.835Z,22.27
2018-07-11T01:29:41.939Z,17.40
2018-07-11T01:32:10.089Z,15.90
2018-07-11T01:34:38.128Z,19.57
2018-07-11T01:37:06.243Z,17.13
2018-07-11T01:39:34.476Z,18.47
2018-07-11T01:42:02.543Z,18.63
2018-07-11T01:44:30.564Z,17.63
2018-07-11T01:46:58.679Z,19.83
2018-07-11T01:49:26.733Z,17.53
2018-07-11T01:52:05.760Z,17.23
2018-07-11T01:54:34.268Z,22.77
2018-07-11T01:57:02.517Z,15.53
2018-07-11T01:59:32.504Z,18.87
2018-07-11T02:02:00.737Z,17.67
2018-07-11T02:04:28.963Z,14.33
2018-07-11T02:06:57.358Z,17.60
2018-07-11T02:09:25.523Z,17.23
2018-07-11T02:11:53.753Z,20.33
2018-07-11T02:14:21.989Z,19.37
2018-07-11T02:16:50.189Z,20.30
2018-07-11T02:19:20.227Z,23.63
2018-07-11T02:21:49.222Z,21.93
2018-07-11T02:24:17.485Z,18.60
2018-07-11T02:26:45.645Z,17.80
2018-07-11T02:29:13.915Z,26.50
2018-07-11T02:31:42.482Z,20.03
2018-07-11T02:34:10.960Z,26.03
2018-07-11T02:36:38.967Z,20.83
2018-07-11T02:39:07.228Z,22.50
2018-07-11T02:41:35.302Z,20.00
2018-07-11T02:44:03.380Z,16.93
2018-07-11T02:46:36.960Z,18.50
2018-07-11T02:49:06.137Z,18.43
2018-07-11T02:51:34.253Z,18.20
2018-07-11T02:54:02.328Z,16.97
2018-07-11T02:56:30.428Z,30.67
2018-07-11T02:58:58.486Z,14.90
2018-07-11T03:01:26.783Z,15.40
2018-07-11T03:03:55.005Z,17.00
2018-07-11T03:06:23.051Z,16.23
2018-07-11T03:08:51.123Z,22.17
2018-07-11T03:11:19.196Z,19.93
2018-07-11T03:13:47.236Z,15.97
2018-07-11T03:16:15.400Z,18.50
2018-07-11T03:18:43.358Z,15.80
2018-07-11T03:21:11.444Z,23.07
2018-07-11T03:23:39.599Z,26.03
2018-07-11T03:26:07.618Z,14.20
2018-07-11T03:28:35.906Z,14.33
2018-07-11T03:31:03.938Z,23.57
2018-07-11T03:33:32.013Z,21.80
2018-07-11T03:36:00.173Z,11.63
2018-07-11T03:38:28.268Z,16.70
2018-07-11T03:40:56.474Z,9.90
2018-07-11T03:43:24.884Z,7.47
2018-07-11T03:45:53.316Z,10.50
2018-07-11T03:48:21.453Z,8.67
2018-07-11T03:50:49.639Z,11.20
2018-07-11T03:53:17.862Z,16.57
2018-07-11T03:55:45.960Z,9.40
2018-07-11T03:58:14.179Z,9.57
2018-07-11T04:00:42.543Z,14.63
2018-07-11T04:03:10.666Z,8.73
2018-07-11T04:05:38.782Z,8.60
2018-07-11T04:08:07.044Z,12.57
2018-07-11T04:10:35.200Z,11.47
2018-07-11T04:13:03.440Z,7.20
2018-07-11T04:15:31.790Z,9.60
2018-07-11T04:17:59.898Z,21.37
2018-07-11T04:20:28.055Z,23.33
2018-07-11T04:22:56.301Z,15.80
2018-07-11T04:25:24.508Z,14.17
2018-07-11T04:27:52.733Z,80.57
2018-07-11T04:30:20.959Z,11.07
2018-07-11T04:32:49.489Z,19.13
2018-07-11T04:35:17.604Z,10.87
2018-07-11T04:37:46.217Z,26.07
2018-07-11T04:40:14.586Z,12.53
2018-07-11T04:42:42.779Z,14.60
2018-07-11T04:45:11.007Z,12.80
2018-07-11T04:47:39.220Z,22.23
2018-07-11T04:50:07.724Z,34.37
2018-07-11T04:52:36.026Z,24.40
2018-07-11T04:55:04.201Z,9.27
2018-07-11T04:57:32.370Z,17.40
2018-07-11T05:00:00.585Z,19.47
2018-07-11T05:02:28.980Z,11.07
2018-07-11T05:04:57.176Z,18.13
2018-07-11T05:07:25.364Z,22.33
2018-07-11T05:09:53.637Z,23.57
2018-07-11T05:12:21.674Z,43.83
2018-07-11T05:14:49.781Z,19.30
2018-07-11T05:17:17.897Z,9.33
2018-07-11T05:19:45.924Z,16.40
2018-07-11T05:22:14.068Z,21.27
2018-07-11T05:24:42.200Z,39.30
2018-07-11T05:27:10.581Z,36.17
2018-07-11T05:29:38.669Z,30.83
2018-07-11T05:32:07.133Z,33.70
2018-07-11T05:34:35.508Z,31.97
2018-07-11T05:37:03.629Z,15.20
2018-07-11T05:39:32.072Z,27.10
2018-07-11T05:42:00.227Z,39.47
2018-07-11T05:44:28.533Z,28.83
2018-07-11T05:47:01.964Z,12.07
2018-07-11T05:49:30.425Z,25.37
2018-07-11T05:51:58.907Z,19.33
2018-07-11T05:54:27.597Z,25.23
2018-07-11T05:56:55.821Z,30.50
2018-07-11T05:59:24.168Z,14.43
2018-07-11T06:01:52.501Z,19.43
2018-07-11T06:04:21.151Z,17.67
2018-07-11T06:06:50.266Z,15.00
2018-07-11T06:09:18.599Z,17.70
2018-07-11T06:11:46.769Z,13.37
2018-07-11T06:14:14.938Z,16.07
2018-07-11T06:16:43.198Z,16.90
2018-07-11T06:19:11.395Z,13.03
2018-07-11T06:21:39.778Z,15.00
2018-07-11T06:24:08.024Z,17.20
2018-07-11T06:26:36.570Z,13.97
2018-07-11T06:29:04.791Z,15.93
2018-07-11T06:31:33.168Z,13.63
2018-07-11T06:34:01.772Z,16.53
2018-07-11T06:36:30.105Z,17.80
2018-07-11T06:38:58.677Z,14.30
2018-07-11T06:41:26.918Z,15.27
2018-07-11T06:43:55.134Z,14.70
2018-07-11T06:46:23.469Z,13.43
2018-07-11T06:48:51.711Z,16.67
2018-07-11T06:51:19.881Z,15.20
2018-07-11T06:53:48.227Z,14.93
2018-07-11T06:56:16.765Z,13.20
2018-07-11T06:58:45.073Z,11.73
2018-07-11T07:01:13.385Z,11.43
2018-07-11T07:03:41.547Z,11.80
2018-07-11T07:06:09.783Z,13.37
2018-07-11T07:08:37.993Z,11.03
2018-07-11T07:11:06.328Z,13.67
2018-07-11T07:13:34.432Z,12.13
2018-07-11T07:16:02.643Z,10.53
2018-07-11T07:18:30.721Z,10.90
2018-07-11T07:20:58.804Z,10.70
2018-07-11T07:23:27.068Z,11.07
2018-07-11T07:25:55.192Z,10.80
2018-07-11T07:28:23.398Z,11.00
2018-07-11T07:30:51.704Z,12.63
2018-07-11T07:33:19.867Z,11.50
2018-07-11T07:35:48.278Z,12.03
2018-07-11T07:38:16.546Z,11.90
2018-07-11T07:40:44.609Z,9.23
2018-07-11T07:43:12.788Z,11.17
2018-07-11T07:45:42.214Z,9.27
2018-07-11T07:48:10.410Z,10.63
2018-07-11T07:50:38.529Z,9.80
2018-07-11T07:53:06.829Z,8.33
2018-07-11T07:55:35.126Z,9.60
2018-07-11T07:58:03.412Z,9.10
2018-07-11T08:00:31.872Z,9.03
2018-07-11T08:03:00.556Z,9.03
2018-07-11T08:05:28.866Z,10.40
2018-07-11T08:07:57.076Z,8.77
2018-07-11T08:10:25.572Z,8.90
2018-07-11T08:12:53.964Z,9.83
2018-07-11T08:15:22.360Z,11.43
2018-07-11T08:17:50.829Z,9.57
2018-07-11T08:20:19.484Z,7.70
2018-07-11T08:23:37.023Z,8.23
2018-07-11T08:28:17.680Z,7.50
2018-07-11T08:31:58.088Z,6.43
2018-07-11T08:34:40.946Z,5.20
2018-07-11T08:37:25.107Z,6.13
2018-07-11T08:40:05.735Z,5.77
2018-07-11T08:43:31.688Z,5.43
2018-07-11T08:48:15.231Z,5.80
2018-07-11T08:53:13.069Z,4.93
2018-07-11T09:00:02.179Z,4.87
2018-07-11T09:03:15.118Z,4.80
2018-07-11T09:10:00.451Z,7.97
2018-07-11T09:12:39.720Z,4.17
2018-07-11T09:17:23.939Z,5.40
2018-07-11T09:20:38.785Z,4.73
2018-07-11T09:23:33.909Z,4.90
2018-07-11T09:26:02.244Z,4.80
2018-07-11T09:28:30.530Z,5.53
2018-07-11T09:30:58.755Z,5.33
2018-07-11T09:33:26.953Z,5.13
2018-07-11T09:35:55.111Z,4.80
2018-07-11T09:38:23.270Z,3.60
2018-07-11T09:40:51.460Z,4.37
2018-07-11T09:43:19.724Z,4.17
2018-07-11T09:45:48.013Z,4.20
2018-07-11T09:48:16.518Z,4.78
2018-07-11T09:50:44.633Z,4.10
2018-07-11T09:53:12.906Z,3.77
2018-07-11T09:55:41.101Z,3.87
2018-07-11T09:58:09.292Z,3.85
2018-07-11T10:01:46.933Z,4.10
2018-07-11T10:04:16.062Z,3.42
2018-07-11T10:06:44.460Z,3.20
2018-07-11T10:09:12.792Z,3.60
2018-07-11T10:11:41.235Z,3.62
2018-07-11T10:14:09.511Z,3.02
2018-07-11T10:16:37.858Z,2.55
2018-07-11T10:19:06.169Z,3.12
2018-07-11T10:21:35.060Z,3.45
2018-07-11T10:24:03.269Z,6.37
2018-07-11T10:26:31.392Z,8.97
2018-07-11T10:28:59.530Z,2.95
2018-07-11T10:31:28.406Z,3.08
2018-07-11T10:33:56.834Z,3.72
2018-07-11T10:36:25.065Z,5.22
2018-07-11T10:38:53.432Z,4.05
2018-07-11T10:41:21.893Z,6.75
2018-07-11T10:43:50.232Z,3.55
2018-07-11T10:46:18.411Z,4.37
2018-07-11T10:48:46.815Z,4.03
2018-07-11T10:51:17.085Z,5.47
2018-07-11T10:53:45.612Z,5.15
2018-07-11T10:56:13.970Z,3.33
2018-07-11T10:58:42.269Z,4.17
2018-07-11T11:01:10.651Z,3.70
2018-07-11T11:03:39.129Z,4.20
2018-07-11T11:06:07.439Z,3.87
2018-07-11T11:08:35.553Z,3.47
2018-07-11T11:11:03.690Z,4.12
2018-07-11T11:13:31.949Z,4.35
2018-07-11T11:16:00.398Z,3.80
2018-07-11T11:18:28.493Z,4.37
2018-07-11T11:20:57.097Z,6.37
2018-07-11T11:23:25.365Z,4.08
2018-07-11T11:25:53.669Z,5.12
2018-07-11T11:28:21.894Z,3.90
2018-07-11T11:30:50.130Z,3.55
2018-07-11T11:33:18.470Z,4.70
2018-07-11T11:35:46.913Z,3.95
2018-07-11T11:38:15.092Z,4.78
2018-07-11T11:40:43.501Z,3.95
2018-07-11T11:43:11.816Z,3.85
2018-07-11T11:45:40.250Z,3.70
2018-07-11T11:48:08.679Z,3.87
2018-07-11T11:50:36.897Z,3.50
2018-07-11T11:53:05.377Z,3.67
2018-07-11T11:55:33.689Z,3.80
2018-07-11T11:58:01.909Z,3.40
2018-07-11T12:00:30.152Z,4.12
2018-07-11T12:02:58.564Z,3.83
2018-07-11T12:05:26.828Z,3.55
2018-07-11T12:07:55.368Z,4.17
2018-07-11T12:10:23.803Z,4.08
2018-07-11T12:12:51.912Z,3.95
2018-07-11T12:15:20.220Z,4.25
2018-07-11T12:17:48.413Z,6.15
2018-07-11T12:20:16.695Z,4.15
2018-07-11T12:22:45.202Z,3.65
2018-07-11T12:25:13.446Z,3.67
2018-07-11T12:27:41.685Z,4.95
2018-07-11T12:30:09.914Z,3.70
2018-07-11T12:32:38.077Z,6.30
2018-07-11T12:35:06.360Z,3.92
2018-07-11T12:37:34.645Z,3.75
2018-07-11T12:40:03.236Z,4.40
2018-07-11T12:42:31.557Z,4.05
2018-07-11T12:44:59.928Z,4.22
2018-07-11T12:47:33.721Z,3.80
2018-07-11T12:50:02.297Z,4.53
2018-07-11T12:52:30.631Z,4.35
2018-07-11T12:54:58.826Z,4.35
2018-07-11T12:57:27.097Z,4.45
2018-07-11T12:59:55.327Z,4.83
2018-07-11T13:02:23.409Z,5.15
2018-07-11T13:04:51.981Z,4.37
2018-07-11T13:07:20.441Z,4.33
2018-07-11T13:09:48.672Z,4.58
2018-07-11T13:12:16.848Z,4.55
2018-07-11T13:14:45.063Z,4.10
2018-07-11T13:17:13.184Z,4.15
2018-07-11T13:19:41.262Z,4.20
2018-07-11T13:22:09.371Z,4.83
2018-07-11T13:24:37.507Z,3.72
2018-07-11T13:27:06.159Z,4.00
2018-07-11T13:29:34.285Z,4.08
2018-07-11T13:32:02.378Z,5.40
2018-07-11T13:34:30.617Z,4.92
2018-07-11T13:36:58.894Z,4.12
2018-07-11T13:39:27.385Z,4.83
2018-07-11T13:41:55.755Z,5.40
2018-07-11T13:44:24.005Z,5.35
2018-07-11T13:46:52.204Z,7.17
2018-07-11T13:49:21.223Z,6.78
2018-07-11T13:51:49.636Z,4.75
2018-07-11T13:54:18.057Z,4.65
2018-07-11T13:56:46.612Z,4.37
2018-07-11T13:59:14.847Z,4.87
2018-07-11T14:01:43.064Z,4.67
2018-07-11T14:04:11.381Z,5.58
2018-07-11T14:06:39.953Z,4.85
2018-07-11T14:09:08.055Z,4.62
2018-07-11T14:11:36.314Z,5.12
2018-07-11T14:14:04.504Z,4.60
2018-07-11T14:16:32.892Z,4.28
2018-07-11T14:19:01.096Z,5.20
2018-07-11T14:21:29.310Z,6.83
2018-07-11T14:23:57.720Z,4.90
2018-07-11T14:26:26.737Z,4.60
2018-07-11T14:28:55.227Z,7.37
2018-07-11T14:31:33.681Z,5.17
2018-07-11T14:34:04.478Z,5.45
2018-07-11T14:36:33.156Z,4.60
2018-07-11T14:39:01.667Z,6.60
2018-07-11T14:41:29.951Z,4.55
2018-07-11T14:43:58.499Z,4.95
2018-07-11T14:46:28.415Z,5.05
2018-07-11T14:48:56.850Z,4.80
2018-07-11T14:51:25.525Z,4.33
2018-07-11T14:53:55.774Z,4.58
2018-07-11T14:56:24.064Z,3.87
2018-07-11T14:58:54.263Z,4.75
2018-07-11T15:01:23.308Z,4.90
2018-07-11T15:03:51.591Z,4.92
2018-07-11T15:06:20.437Z,5.35
2018-07-11T15:08:48.709Z,5.92
2018-07-11T15:11:16.944Z,6.08
2018-07-11T15:13:45.128Z,6.45
2018-07-11T15:16:13.412Z,4.80
2018-07-11T15:18:41.677Z,4.92
2018-07-11T15:21:09.941Z,5.83
2018-07-11T15:23:38.357Z,4.70
2018-07-11T15:26:06.675Z,4.62
2018-07-11T15:28:34.905Z,4.65
2018-07-11T15:31:03.109Z,4.30
2018-07-11T15:33:31.459Z,5.22
2018-07-11T15:35:59.899Z,5.53
2018-07-11T15:38:28.401Z,5.37
2018-07-11T15:40:59.361Z,4.58
2018-07-11T15:43:28.341Z,4.83
2018-07-11T15:45:57.105Z,4.67
2018-07-11T15:48:25.436Z,5.92
2018-07-11T15:50:54.433Z,6.80
2018-07-11T15:53:23.422Z,7.10
2018-07-11T15:55:52.482Z,6.78
2018-07-11T15:58:21.594Z,6.28
2018-07-11T16:00:49.653Z,4.75
2018-07-11T16:03:19.122Z,6.97
2018-07-11T16:05:48.057Z,4.30
2018-07-11T16:08:20.569Z,7.37
2018-07-11T16:10:50.275Z,4.92
2018-07-11T16:13:18.461Z,4.63
2018-07-11T16:15:46.744Z,7.25
2018-07-11T16:18:14.920Z,5.87
2018-07-11T16:20:43.099Z,4.17
2018-07-11T16:23:11.470Z,6.37
2018-07-11T16:25:41.105Z,6.40
2018-07-11T16:28:09.428Z,4.17
2018-07-11T16:30:37.687Z,6.47
2018-07-11T16:33:06.078Z,6.40
2018-07-11T16:35:34.205Z,5.73
2018-07-11T16:38:02.705Z,4.33
2018-07-11T16:40:32.014Z,5.60
2018-07-11T16:43:00.792Z,6.93
2018-07-11T16:45:29.506Z,5.03
2018-07-11T16:47:58.432Z,4.75
2018-07-11T16:50:26.724Z,5.20
2018-07-11T16:52:55.691Z,9.07
2018-07-11T16:55:24.291Z,5.73
2018-07-11T16:57:53.239Z,6.50
2018-07-11T17:00:26.329Z,11.70
2018-07-11T17:03:07.646Z,5.50
2018-07-11T17:06:09.808Z,7.57
2018-07-11T17:08:43.366Z,8.30
2018-07-11T17:11:16.981Z,9.73
2018-07-11T17:13:54.376Z,5.23
2018-07-11T17:16:30.278Z,5.90
2018-07-11T17:19:08.791Z,5.50
2018-07-11T17:21:47.053Z,8.30
2018-07-11T17:24:16.974Z,7.93
2018-07-11T17:26:46.858Z,9.40
2018-07-11T17:29:20.104Z,7.07
2018-07-11T17:31:50.813Z,7.07
2018-07-11T17:34:19.058Z,6.83
2018-07-11T17:36:49.197Z,6.40
2018-07-11T17:39:17.549Z,8.47
2018-07-11T17:41:46.785Z,6.80
2018-07-11T17:44:16.630Z,5.50
2018-07-11T17:46:45.958Z,9.17
2018-07-11T17:49:20.042Z,4.97
2018-07-11T17:52:06.515Z,8.50
2018-07-11T17:54:48.152Z,7.50
2018-07-11T17:57:25.697Z,5.13
2018-07-11T18:00:06.569Z,6.50
2018-07-11T18:02:47.497Z,6.50
2018-07-11T18:05:26.636Z,10.37
2018-07-11T18:07:55.925Z,7.27
2018-07-11T18:10:33.185Z,5.60
2018-07-11T18:13:15.787Z,9.03
2018-07-11T18:15:53.878Z,7.70
2018-07-11T18:18:39.111Z,7.67
2018-07-11T18:21:24.264Z,7.27
2018-07-11T18:25:01.350Z,6.23
2018-07-11T18:28:40.759Z,7.63
2018-07-11T18:33:29.340Z,7.23
2018-07-11T18:36:12.976Z,7.63
2018-07-11T18:38:54.410Z,7.10
2018-07-11T18:41:33.102Z,5.47
2018-07-11T18:44:14.388Z,5.43
2018-07-11T18:46:56.622Z,7.23
2018-07-11T18:49:33.197Z,8.03
2018-07-11T18:52:12.744Z,5.87
2018-07-11T18:54:52.901Z,7.10
2018-07-11T18:57:34.245Z,6.93
2018-07-11T19:02:18.627Z,9.27
2018-07-11T19:05:01.348Z,7.13
2018-07-11T19:07:41.336Z,5.47
2018-07-11T19:10:10.690Z,7.00
2018-07-11T19:12:54.810Z,5.57
2018-07-11T19:15:32.357Z,4.73
2018-07-11T19:18:07.096Z,6.20
2018-07-11T19:21:12.099Z,4.23
2018-07-11T19:23:53.215Z,5.87
2018-07-11T19:26:29.744Z,7.17
2018-07-11T19:29:22.272Z,10.07
2018-07-11T19:32:08.988Z,7.27
2018-07-11T19:34:56.347Z,6.23
2018-07-11T19:38:34.271Z,5.40
2018-07-11T19:41:12.154Z,4.57
2018-07-11T19:45:56.749Z,6.33
2018-07-11T19:50:39.824Z,5.77
2018-07-11T19:54:21.613Z,6.00
2018-07-11T19:56:49.931Z,5.37
2018-07-11T19:59:18.372Z,5.50
2018-07-11T20:01:47.035Z,8.67
2018-07-11T20:04:15.713Z,8.00
2018-07-11T20:06:44.286Z,6.20
2018-07-11T20:09:13.751Z,10.07
2018-07-11T20:11:42.383Z,5.87
2018-07-11T20:14:10.945Z,5.40
2018-07-11T20:16:39.783Z,5.67
2018-07-11T20:19:07.854Z,9.40
2018-07-11T20:21:36.046Z,10.37
2018-07-11T20:24:04.383Z,5.40
2018-07-11T20:26:32.731Z,5.40
2018-07-11T20:29:01.114Z,8.47
2018-07-11T20:31:29.606Z,9.53
2018-07-11T20:33:58.152Z,6.80
2018-07-11T20:36:26.578Z,9.03
2018-07-11T20:38:54.945Z,7.83
2018-07-11T20:41:23.743Z,9.40
2018-07-11T20:43:52.633Z,8.13
2018-07-11T20:46:21.113Z,5.63
2018-07-11T20:48:49.444Z,7.43
2018-07-11T20:51:17.598Z,7.27
2018-07-11T20:53:45.826Z,9.30
2018-07-11T20:56:13.896Z,7.93
2018-07-11T20:58:52.908Z,6.97
2018-07-11T21:01:32.043Z,7.50
2018-07-11T21:06:19.844Z,7.07
2018-07-11T21:10:00.748Z,8.00
2018-07-11T21:12:46.598Z,6.13
2018-07-11T21:17:33.691Z,6.80
2018-07-11T21:20:01.862Z,6.53
2018-07-11T21:22:30.197Z,7.50
2018-07-11T21:24:58.296Z,7.57
2018-07-11T21:27:26.535Z,6.23
2018-07-11T21:29:54.623Z,7.77
2018-07-11T21:32:22.801Z,6.90
2018-07-11T21:34:51.065Z,5.30
2018-07-11T21:37:19.287Z,7.20
2018-07-11T21:39:47.426Z,6.10
2018-07-11T21:42:15.569Z,8.57
2018-07-11T21:44:43.878Z,7.07
2018-07-11T21:47:12.017Z,7.30
2018-07-11T21:49:40.168Z,7.73
2018-07-11T21:52:08.216Z,7.03
2018-07-11T21:54:36.397Z,5.80
2018-07-11T21:57:04.560Z,9.03
2018-07-11T21:59:32.830Z,7.87
2018-07-11T22:02:01.012Z,6.40
2018-07-11T22:04:29.245Z,7.87
2018-07-11T22:06:57.335Z,6.17
2018-07-11T22:09:25.321Z,9.33
2018-07-11T22:11:53.442Z,6.57
2018-07-11T22:14:21.447Z,9.10
2018-07-11T22:16:49.528Z,7.00
2018-07-11T22:19:17.617Z,7.27
2018-07-11T22:21:44.349Z,6.53
2018-07-11T22:24:11.120Z,7.00
2018-07-11T22:26:37.959Z,8.53
2018-07-11T22:29:04.654Z,6.87
2018-07-11T22:31:31.385Z,7.13
2018-07-11T22:33:58.194Z,8.30
2018-07-11T22:36:24.944Z,6.03
2018-07-11T22:38:51.676Z,9.03
2018-07-11T22:41:18.392Z,6.40
2018-07-11T22:43:45.172Z,6.47
2018-07-11T22:46:12.026Z,7.43
2018-07-11T22:48:38.958Z,6.00
2018-07-11T22:51:05.719Z,7.60
2018-07-11T22:53:32.636Z,5.57
2018-07-11T22:55:59.975Z,5.30
2018-07-11T22:58:26.757Z,7.73
2018-07-11T23:00:53.682Z,8.43
2018-07-11T23:03:20.637Z,8.00
2018-07-11T23:05:47.365Z,5.37
2018-07-11T23:08:14.079Z,6.53
2018-07-11T23:10:40.868Z,8.90
2018-07-11T23:13:07.664Z,9.17
2018-07-11T23:15:34.700Z,7.27
2018-07-11T23:18:01.407Z,5.70
2018-07-11T23:20:28.161Z,4.63
2018-07-11T23:22:54.839Z,7.77
2018-07-11T23:25:21.503Z,5.77
2018-07-11T23:27:48.222Z,5.10
2018-07-11T23:30:14.914Z,7.67
2018-07-11T23:32:41.573Z,5.60
2018-07-11T23:35:08.284Z,6.07
2018-07-11T23:37:34.946Z,6.90
2018-07-11T23:40:01.666Z,5.10
2018-07-11T23:42:28.443Z,8.17
2018-07-11T23:44:55.180Z,8.87
2018-07-11T23:47:21.843Z,8.57
2018-07-11T23:49:48.515Z,5.47
2018-07-11T23:52:15.237Z,7.27
2018-07-11T23:54:47.404Z,8.30
2018-07-11T23:57:14.126Z,5.40
2018-07-11T23:59:40.887Z,5.80
